Time;durP1;ratioP1;P1;durP2;ratioP2;P2;SDS_P1;SDS_P2;PMS_P1;PMS_P2;Temp;Humidity;BMP_temperature;BMP_pressure;BME280_temperature;BME280_humidity;BME280_pressure;Samples;Min_cycle;Max_cycle;Signal;HPM_P1;HPM_P2
2022/05/29 00:01:03;;;;;;;3.55;1.50;;;21.00;93.50;;;;;;4206601;28;20223;-76
2022/05/29 00:03:06;;;;;;;2.83;1.00;;;21.00;93.50;;;;;;4208535;28;20272;-76
2022/05/29 00:05:11;;;;;;;3.33;1.38;;;21.00;93.40;;;;;;4208975;28;20273;-75
2022/05/29 00:07:17;;;;;;;3.47;1.30;;;21.00;93.50;;;;;;4208864;28;20214;-76
2022/05/29 00:09:31;;;;;;;2.97;1.13;;;21.00;93.40;;;;;;4209008;28;20276;-76
2022/05/29 00:11:33;;;;;;;1.95;1.00;;;21.00;93.40;;;;;;4208232;28;20214;-76
2022/05/29 00:13:36;;;;;;;2.97;1.10;;;21.00;93.40;;;;;;4208042;28;20218;-76
2022/05/29 00:15:39;;;;;;;2.90;1.10;;;21.00;93.40;;;;;;4209174;28;20211;-76
2022/05/29 00:17:42;;;;;;;2.85;1.10;;;21.00;93.40;;;;;;4208563;28;20242;-76
2022/05/29 00:19:45;;;;;;;3.35;1.13;;;21.00;93.50;;;;;;4209600;28;20256;-76
2022/05/29 00:21:47;;;;;;;3.72;1.40;;;21.00;93.80;;;;;;4209206;28;20222;-76
2022/05/29 00:23:50;;;;;;;2.72;1.25;;;21.00;93.50;;;;;;4209542;28;20590;-76
2022/05/29 00:25:54;;;;;;;3.05;1.02;;;21.00;93.50;;;;;;4207647;28;20624;-76
2022/05/29 00:27:56;;;;;;;2.35;1.20;;;21.00;93.50;;;;;;4209183;28;20655;-76
2022/05/29 00:29:58;;;;;;;4.38;1.58;;;21.00;93.50;;;;;;4207221;28;20248;-76
2022/05/29 00:32:01;;;;;;;2.28;1.15;;;21.00;93.50;;;;;;4209547;28;20630;-75
2022/05/29 00:34:03;;;;;;;3.50;1.10;;;21.00;93.60;;;;;;4206374;28;20218;-76
2022/05/29 00:36:07;;;;;;;3.75;1.42;;;21.00;93.60;;;;;;4208344;28;20214;-76
2022/05/29 00:38:11;;;;;;;4.28;1.30;;;20.90;93.60;;;;;;4208301;28;20533;-76
2022/05/29 00:40:23;;;;;;;4.20;1.38;;;20.90;93.50;;;;;;4208944;28;20222;-76
2022/05/29 00:42:27;;;;;;;3.08;1.30;;;20.90;93.60;;;;;;4208850;28;20655;-76
2022/05/29 00:44:30;;;;;;;3.05;1.20;;;21.00;93.60;;;;;;4208881;28;20647;-76
2022/05/29 00:46:34;;;;;;;1.98;0.82;;;21.00;93.60;;;;;;4207624;28;20219;-76
2022/05/29 00:48:36;;;;;;;3.05;1.13;;;20.90;93.60;;;;;;4209407;28;20218;-76
2022/05/29 00:50:40;;;;;;;3.90;1.35;;;20.90;93.60;;;;;;4206856;28;20210;-76
2022/05/29 00:52:42;;;;;;;3.17;1.25;;;20.90;93.60;;;;;;4206954;28;20256;-76
2022/05/29 00:54:53;;;;;;;5.25;1.60;;;20.90;93.60;;;;;;4208921;28;20210;-76
2022/05/29 00:56:56;;;;;;;3.50;1.10;;;20.90;93.60;;;;;;4211129;28;20214;-76
2022/05/29 00:59:01;;;;;;;2.78;1.20;;;20.90;93.60;;;;;;4211732;28;20694;-76
2022/05/29 01:01:04;;;;;;;3.58;1.30;;;20.90;93.60;;;;;;4212056;28;20249;-76
2022/05/29 01:03:07;;;;;;;4.72;1.17;;;20.90;93.60;;;;;;4211550;28;20630;-76
2022/05/29 01:05:13;;;;;;;2.05;0.90;;;20.90;93.60;;;;;;4210479;28;20728;-76
2022/05/29 01:07:18;;;;;;;3.85;1.63;;;20.90;93.60;;;;;;4211227;28;20727;-76
2022/05/29 01:09:21;;;;;;;3.45;1.42;;;21.00;93.70;;;;;;4211595;28;20218;-76
2022/05/29 01:11:31;;;;;;;3.30;1.08;;;20.90;93.60;;;;;;4209807;28;20272;-76
2022/05/29 01:13:42;;;;;;;2.75;1.10;;;20.90;93.60;;;;;;4210719;28;20214;-76
2022/05/29 01:15:56;;;;;;;4.60;1.30;;;20.90;93.70;;;;;;4211809;28;20276;-76
2022/05/29 01:18:08;;;;;;;5.80;1.27;;;20.90;93.70;;;;;;4211733;28;20237;-76
2022/05/29 01:20:25;;;;;;;3.58;1.20;;;20.90;93.70;;;;;;4211572;28;20291;-76
2022/05/29 01:22:51;;;;;;;4.07;1.15;;;20.90;93.70;;;;;;4212198;28;20951;-76
2022/05/29 01:25:33;;;;;;;2.58;1.10;;;20.90;93.70;;;;;;4210482;28;20246;-76
2022/05/29 01:27:50;;;;;;;4.70;1.38;;;20.90;93.70;;;;;;4211690;28;20218;-76
2022/05/29 01:30:04;;;;;;;5.68;1.15;;;20.90;93.70;;;;;;4211297;28;20644;-76
2022/05/29 01:32:12;;;;;;;3.05;1.30;;;20.90;93.70;;;;;;4211097;28;20219;-76
2022/05/29 01:34:26;;;;;;;2.30;1.35;;;20.80;93.70;;;;;;4211737;28;20280;-76
2022/05/29 01:36:35;;;;;;;2.92;1.08;;;20.80;93.70;;;;;;4211526;28;20274;-76
2022/05/29 01:38:43;;;;;;;2.58;1.00;;;20.90;93.80;;;;;;4209463;28;20287;-76
2022/05/29 01:40:51;;;;;;;3.10;1.13;;;20.80;93.70;;;;;;4210471;28;20201;-76
2022/05/29 01:42:58;;;;;;;2.13;0.80;;;20.80;93.70;;;;;;4209399;28;20287;-76
2022/05/29 01:45:08;;;;;;;3.08;1.10;;;20.90;93.70;;;;;;4211852;28;20219;-76
2022/05/29 01:47:14;;;;;;;3.05;1.35;;;20.80;94.10;;;;;;4211065;28;20217;-76
2022/05/29 01:49:22;;;;;;;4.05;1.20;;;20.80;93.70;;;;;;4209688;28;20210;-76
2022/05/29 01:51:27;;;;;;;3.83;1.27;;;20.80;94.10;;;;;;4211774;28;20226;-76
2022/05/29 01:53:33;;;;;;;4.30;1.08;;;20.80;94.10;;;;;;4211073;28;20222;-76
2022/05/29 01:55:42;;;;;;;5.30;1.27;;;20.80;93.70;;;;;;4208671;28;20214;-76
2022/05/29 01:57:48;;;;;;;2.38;1.00;;;20.80;93.70;;;;;;4211247;28;20268;-76
2022/05/29 01:59:56;;;;;;;2.97;0.90;;;20.80;93.70;;;;;;4209223;28;20293;-76
2022/05/29 02:02:04;;;;;;;2.13;0.93;;;20.80;93.70;;;;;;4211390;28;20213;-76
2022/05/29 02:04:18;;;;;;;2.47;1.10;;;20.80;93.70;;;;;;4211344;28;20222;-76
2022/05/29 02:06:24;;;;;;;3.33;1.17;;;20.80;93.70;;;;;;4210151;28;20287;-76
2022/05/29 02:08:31;;;;;;;2.35;0.90;;;20.80;93.70;;;;;;4209729;28;20667;-76
2022/05/29 02:10:39;;;;;;;4.60;1.27;;;20.80;93.70;;;;;;4211108;28;20631;-76
2022/05/29 02:12:46;;;;;;;2.10;0.95;;;20.80;93.70;;;;;;4209589;28;20217;-76
2022/05/29 02:14:56;;;;;;;2.22;0.90;;;20.80;93.70;;;;;;4211064;28;20214;-76
2022/05/29 02:17:05;;;;;;;3.35;1.13;;;20.80;93.70;;;;;;4209838;28;20261;-76
2022/05/29 02:19:23;;;;;;;2.28;1.02;;;20.80;93.70;;;;;;4211295;28;20778;-76
2022/05/29 02:21:32;;;;;;;4.10;1.08;;;20.80;93.70;;;;;;4210915;28;20214;-76
2022/05/29 02:23:37;;;;;;;2.35;1.05;;;20.80;93.70;;;;;;4209326;28;20222;-76
2022/05/29 02:25:41;;;;;;;2.47;1.20;;;20.80;93.70;;;;;;4210500;28;20227;-76
2022/05/29 02:27:47;;;;;;;2.90;1.23;;;20.80;93.70;;;;;;4210964;28;20219;-76
2022/05/29 02:29:49;;;;;;;2.80;1.30;;;20.80;93.70;;;;;;4208623;28;20210;-76
2022/05/29 02:32:03;;;;;;;2.28;1.00;;;20.80;93.70;;;;;;4210920;28;20294;-76
2022/05/29 02:34:14;;;;;;;2.45;1.00;;;20.80;93.70;;;;;;4207928;28;20251;-76
2022/05/29 02:36:29;;;;;;;2.47;1.10;;;20.70;93.70;;;;;;4210227;28;20282;-76
2022/05/29 02:38:37;;;;;;;1.60;0.88;;;20.70;93.70;;;;;;4209513;28;20246;-76
2022/05/29 02:40:49;;;;;;;3.83;1.05;;;20.70;93.60;;;;;;4209480;28;20213;-76
2022/05/29 02:43:02;;;;;;;2.85;1.25;;;20.70;93.80;;;;;;4209620;28;20226;-76
2022/05/29 02:45:15;;;;;;;3.03;1.00;;;20.70;93.90;;;;;;4209141;28;20260;-76
2022/05/29 02:47:27;;;;;;;1.90;0.93;;;20.70;93.90;;;;;;4208172;28;20267;-76
2022/05/29 02:49:36;;;;;;;1.85;0.80;;;20.70;93.90;;;;;;4208265;28;20953;-76
2022/05/29 02:51:42;;;;;;;2.20;1.00;;;20.70;93.90;;;;;;4206864;28;20210;-76
2022/05/29 02:53:45;;;;;;;4.35;1.30;;;20.70;93.90;;;;;;4209276;28;20222;-76
2022/05/29 02:55:48;;;;;;;2.67;1.00;;;20.70;93.90;;;;;;4209482;28;20240;-76
2022/05/29 02:57:51;;;;;;;1.20;0.80;;;20.60;94.30;;;;;;4209673;28;20377;-76
2022/05/29 03:00:03;;;;;;;3.03;1.00;;;20.70;94.00;;;;;;4209169;28;20775;-76
2022/05/29 03:02:12;;;;;;;1.92;1.00;;;20.70;94.00;;;;;;4209084;28;20226;-76
2022/05/29 03:04:30;;;;;;;2.45;1.08;;;20.70;94.00;;;;;;4209006;28;20271;-76
2022/05/29 03:06:44;;;;;;;2.58;1.10;;;20.70;94.00;;;;;;4208002;28;20287;-76
2022/05/29 03:08:58;;;;;;;2.58;1.10;;;20.70;94.00;;;;;;4209343;28;20211;-76
2022/05/29 03:11:09;;;;;;;2.63;1.08;;;20.70;94.00;;;;;;4209622;28;20217;-76
2022/05/29 03:13:20;;;;;;;3.00;1.27;;;20.60;94.00;;;;;;4209665;28;20256;-76
2022/05/29 03:15:35;;;;;;;2.65;1.00;;;20.60;94.00;;;;;;4209262;28;20260;-76
2022/05/29 03:17:45;;;;;;;2.75;1.10;;;20.70;94.10;;;;;;4208069;28;20601;-76
2022/05/29 03:19:53;;;;;;;1.85;0.95;;;20.60;94.10;;;;;;4208152;28;20237;-76
2022/05/29 03:22:05;;;;;;;2.17;1.05;;;20.70;94.10;;;;;;4209219;28;20719;-76
2022/05/29 03:24:15;;;;;;;2.72;0.90;;;20.70;94.10;;;;;;4206656;28;20808;-76
2022/05/29 03:26:26;;;;;;;2.67;1.20;;;20.60;94.00;;;;;;4209169;28;20292;-76
2022/05/29 03:28:34;;;;;;;2.25;1.00;;;20.60;94.10;;;;;;4208614;28;20268;-76
2022/05/29 03:30:39;;;;;;;2.30;1.00;;;20.70;94.20;;;;;;4209620;28;20621;-76
2022/05/29 03:32:43;;;;;;;2.20;0.98;;;20.60;94.10;;;;;;4208914;28;20264;-76
2022/05/29 03:34:45;;;;;;;2.00;0.85;;;20.60;94.20;;;;;;4209681;28;20240;-76
2022/05/29 03:36:51;;;;;;;2.08;0.90;;;20.70;94.20;;;;;;4207962;28;20211;-76
2022/05/29 03:38:53;;;;;;;2.97;1.10;;;20.60;94.10;;;;;;4208776;28;20342;-76
2022/05/29 03:40:56;;;;;;;2.28;0.80;;;20.70;94.20;;;;;;4208292;28;20732;-76
2022/05/29 03:42:59;;;;;;;2.03;1.00;;;20.60;94.10;;;;;;4209534;28;20728;-76
2022/05/29 03:45:01;;;;;;;3.20;1.00;;;20.70;94.00;;;;;;4209364;28;20210;-76
2022/05/29 03:47:04;;;;;;;2.08;1.20;;;20.60;94.00;;;;;;4209553;28;20290;-76
2022/05/29 03:49:07;;;;;;;1.80;0.90;;;20.70;94.10;;;;;;4207911;28;20211;-76
2022/05/29 03:51:10;;;;;;;2.10;1.00;;;20.60;94.10;;;;;;4205876;28;20250;-76
2022/05/29 03:53:13;;;;;;;3.13;0.90;;;20.60;94.10;;;;;;4209052;28;20210;-76
2022/05/29 03:55:20;;;;;;;2.63;0.90;;;20.60;94.10;;;;;;4206622;28;20210;-76
2022/05/29 03:57:22;;;;;;;2.92;0.80;;;20.60;94.10;;;;;;4206592;28;20272;-76
2022/05/29 03:59:24;;;;;;;2.50;0.88;;;20.60;94.10;;;;;;4207783;28;20296;-76
2022/05/29 04:01:28;;;;;;;1.98;0.98;;;20.60;94.10;;;;;;4208059;28;20687;-76
2022/05/29 04:03:30;;;;;;;2.42;1.08;;;20.60;94.10;;;;;;4209062;28;20864;-76
2022/05/29 04:05:32;;;;;;;3.35;1.08;;;20.60;94.10;;;;;;4208536;28;20283;-76
2022/05/29 04:12:16;;;;;;;2.00;1.02;;;20.60;94.10;;;;;;4207375;28;20199;-76
2022/05/29 04:14:19;;;;;;;1.77;1.00;;;20.60;94.10;;;;;;4208172;28;20297;-76
2022/05/29 04:16:21;;;;;;;1.73;0.95;;;20.60;94.10;;;;;;4208306;28;20263;-76
2022/05/29 04:18:23;;;;;;;3.03;1.17;;;20.50;94.20;;;;;;4208124;28;20214;-75
2022/05/29 04:20:26;;;;;;;1.80;1.00;;;20.50;94.20;;;;;;4207908;28;20295;-76
2022/05/29 04:22:28;;;;;;;2.30;0.98;;;20.50;94.20;;;;;;4208133;28;20636;-76
2022/05/29 04:24:30;;;;;;;2.08;0.98;;;20.60;94.30;;;;;;4208382;28;20210;-75
2022/05/29 04:26:36;;;;;;;1.80;0.93;;;20.50;94.30;;;;;;4208495;28;20264;-75
2022/05/29 04:28:38;;;;;;;1.92;0.77;;;20.60;94.30;;;;;;4207714;28;20892;-76
2022/05/29 04:30:41;;;;;;;2.65;1.05;;;20.60;94.30;;;;;;4208178;28;20939;-76
2022/05/29 04:33:01;;;;;;;2.45;0.93;;;20.60;94.30;;;;;;4207688;28;20267;-76
2022/05/29 04:35:03;;;;;;;2.75;1.02;;;20.60;94.30;;;;;;4207982;28;20288;-75
2022/05/29 04:37:06;;;;;;;2.60;0.93;;;20.60;94.20;;;;;;4208360;28;20239;-76
2022/05/29 04:39:08;;;;;;;2.10;1.02;;;20.60;94.20;;;;;;4208549;28;20218;-75
2022/05/29 04:41:11;;;;;;;1.23;0.77;;;20.60;94.20;;;;;;4208507;28;20828;-76
2022/05/29 04:43:15;;;;;;;1.88;0.95;;;20.60;94.20;;;;;;4208715;28;20259;-76
2022/05/29 04:45:18;;;;;;;1.65;0.93;;;20.60;94.20;;;;;;4206900;28;20222;-76
2022/05/29 04:47:20;;;;;;;2.67;1.33;;;20.60;94.20;;;;;;4207764;28;20218;-76
2022/05/29 04:49:22;;;;;;;2.10;0.90;;;20.60;94.20;;;;;;4202845;28;20215;-76
2022/05/29 04:51:25;;;;;;;1.63;0.80;;;20.60;94.20;;;;;;4208730;28;21049;-75
2022/05/29 04:53:28;;;;;;;1.70;0.70;;;20.50;94.20;;;;;;4208098;28;20218;-76
2022/05/29 04:55:31;;;;;;;2.78;0.73;;;20.60;94.30;;;;;;4207267;28;20222;-76
2022/05/29 04:57:33;;;;;;;3.25;1.02;;;20.60;94.30;;;;;;4208058;28;20222;-76
2022/05/29 04:59:37;;;;;;;1.73;0.80;;;20.60;94.30;;;;;;4208340;28;20320;-76
2022/05/29 05:01:39;;;;;;;3.70;0.85;;;20.50;94.30;;;;;;4206616;28;20644;-76
2022/05/29 05:03:42;;;;;;;1.40;0.68;;;20.60;94.30;;;;;;4207905;28;20214;-76
2022/05/29 05:05:47;;;;;;;2.45;0.93;;;20.60;94.40;;;;;;4207178;28;20293;-76
2022/05/29 05:07:50;;;;;;;1.88;0.85;;;20.60;94.50;;;;;;4207899;28;20675;-76
2022/05/29 05:09:52;;;;;;;1.23;0.93;;;20.60;94.40;;;;;;4206955;28;20284;-76
2022/05/29 05:11:55;;;;;;;2.03;0.80;;;20.60;94.30;;;;;;4207910;28;20237;-76
2022/05/29 05:13:58;;;;;;;2.90;0.95;;;20.60;94.30;;;;;;4207609;28;20255;-76
2022/05/29 05:16:02;;;;;;;2.67;1.13;;;20.60;94.40;;;;;;4207960;28;20610;-76
2022/05/29 05:18:05;;;;;;;1.85;0.95;;;20.60;94.40;;;;;;4207860;28;20226;-76
2022/05/29 05:20:09;;;;;;;2.92;0.82;;;20.60;94.30;;;;;;4206797;28;20230;-76
2022/05/29 05:22:11;;;;;;;1.75;0.80;;;20.60;94.30;;;;;;4208009;28;20218;-76
2022/05/29 05:24:14;;;;;;;1.58;0.90;;;20.60;94.60;;;;;;4207668;28;20210;-76
2022/05/29 05:26:16;;;;;;;1.48;0.80;;;20.60;94.20;;;;;;4207373;28;20268;-76
2022/05/29 05:28:20;;;;;;;2.28;1.00;;;20.70;94.20;;;;;;4207821;28;21461;-76
2022/05/29 05:30:22;;;;;;;3.08;1.10;;;20.60;94.20;;;;;;4206992;28;20214;-76
2022/05/29 05:32:26;;;;;;;3.05;1.02;;;20.70;94.20;;;;;;4208046;28;20218;-76
2022/05/29 05:34:28;;;;;;;2.95;1.23;;;20.60;94.20;;;;;;4207486;28;20219;-75
2022/05/29 05:36:31;;;;;;;1.42;0.77;;;20.60;94.20;;;;;;4206690;28;20641;-76
2022/05/29 05:38:33;;;;;;;2.05;0.98;;;20.60;94.20;;;;;;4207563;28;20276;-76
2022/05/29 05:40:36;;;;;;;1.92;0.80;;;20.60;94.20;;;;;;4206568;28;20230;-76
2022/05/29 05:42:38;;;;;;;3.13;0.90;;;20.60;94.20;;;;;;4207918;28;20210;-76
2022/05/29 05:44:40;;;;;;;1.33;0.68;;;20.60;94.20;;;;;;4210400;28;20202;-76
2022/05/29 05:46:46;;;;;;;2.30;0.82;;;20.60;94.20;;;;;;4211006;28;20230;-76
2022/05/29 05:48:50;;;;;;;1.85;0.80;;;20.60;94.20;;;;;;4210179;28;20219;-76
2022/05/29 05:50:56;;;;;;;1.98;1.00;;;20.60;94.20;;;;;;4209664;28;20969;-76
2022/05/29 05:52:58;;;;;;;3.08;0.90;;;20.60;94.20;;;;;;4209722;28;20218;-76
2022/05/29 05:55:01;;;;;;;2.15;0.80;;;20.60;94.20;;;;;;4208536;28;20226;-76
2022/05/29 05:57:05;;;;;;;1.98;0.90;;;20.60;94.20;;;;;;4210181;28;20267;-76
2022/05/29 05:59:07;;;;;;;2.35;1.10;;;20.60;94.20;;;;;;4210312;28;20295;-76
2022/05/29 06:01:12;;;;;;;1.83;0.77;;;20.60;94.60;;;;;;4209490;28;20291;-76
2022/05/29 06:03:15;;;;;;;1.75;1.00;;;20.60;94.30;;;;;;4210229;28;20210;-76
2022/05/29 06:05:18;;;;;;;2.72;0.90;;;20.60;94.60;;;;;;4209762;28;20275;-76
2022/05/29 06:07:20;;;;;;;2.15;0.80;;;20.60;94.50;;;;;;4210928;28;20222;-76
2022/05/29 06:09:23;;;;;;;1.52;0.98;;;20.60;94.30;;;;;;4209838;28;20222;-76
2022/05/29 06:11:26;;;;;;;2.28;0.82;;;20.60;94.30;;;;;;4209774;28;20207;-76
2022/05/29 06:13:29;;;;;;;1.65;0.88;;;20.60;94.80;;;;;;4209578;28;20219;-76
2022/05/29 06:15:31;;;;;;;2.03;0.80;;;20.60;94.40;;;;;;4209722;28;20241;-76
2022/05/29 06:17:33;;;;;;;2.45;1.02;;;20.60;94.40;;;;;;4210121;28;20259;-76
2022/05/29 06:19:36;;;;;;;1.67;0.85;;;20.60;94.40;;;;;;4210418;28;20375;-76
2022/05/29 06:21:40;;;;;;;2.25;1.13;;;20.50;94.40;;;;;;4208717;28;20310;-76
2022/05/29 06:23:42;;;;;;;1.20;0.80;;;20.60;94.40;;;;;;4209591;28;20284;-75
2022/05/29 06:25:44;;;;;;;1.88;0.93;;;20.60;94.40;;;;;;4210097;28;20218;-76
2022/05/29 06:27:47;;;;;;;1.52;0.80;;;20.60;94.40;;;;;;4209004;28;20679;-76
2022/05/29 06:29:49;;;;;;;1.58;1.05;;;20.60;94.40;;;;;;4209584;28;20214;-76
2022/05/29 06:31:53;;;;;;;2.95;1.17;;;20.50;94.40;;;;;;4209166;28;20218;-76
2022/05/29 06:33:56;;;;;;;3.38;1.17;;;20.60;94.40;;;;;;4210581;28;20253;-76
2022/05/29 06:36:07;;;;;;;2.70;1.08;;;20.50;94.40;;;;;;4210227;28;20210;-76
2022/05/29 06:38:11;;;;;;;1.88;0.77;;;20.50;94.60;;;;;;4210217;28;20222;-76
2022/05/29 06:40:15;;;;;;;1.95;0.98;;;20.50;94.40;;;;;;4209340;28;20219;-76
2022/05/29 06:42:17;;;;;;;2.63;0.90;;;20.50;94.40;;;;;;4209928;28;20214;-76
2022/05/29 06:44:19;;;;;;;1.92;0.80;;;20.60;94.40;;;;;;4208454;28;20222;-76
2022/05/29 06:46:22;;;;;;;2.42;0.98;;;20.60;94.40;;;;;;4208990;28;20264;-76
2022/05/29 06:48:24;;;;;;;2.63;1.23;;;20.60;94.40;;;;;;4208012;28;20214;-76
2022/05/29 06:50:27;;;;;;;2.03;0.95;;;20.50;94.50;;;;;;4208861;28;20263;-76
2022/05/29 06:52:31;;;;;;;1.95;0.68;;;20.50;94.40;;;;;;4209562;28;20210;-76
2022/05/29 06:54:35;;;;;;;2.75;1.13;;;20.50;94.30;;;;;;4208348;28;20254;-76
2022/05/29 06:56:37;;;;;;;2.53;1.02;;;20.50;94.40;;;;;;4209205;28;20223;-76
2022/05/29 06:58:40;;;;;;;2.78;0.85;;;20.50;94.30;;;;;;4209518;28;20712;-76
2022/05/29 07:07:44;;;;;;;1.67;0.70;;;20.60;94.50;;;;;;4209451;28;20265;-76
2022/05/29 07:09:48;;;;;;;3.05;0.88;;;20.60;94.40;;;;;;4209267;28;20222;-76
2022/05/29 07:11:54;;;;;;;3.17;0.90;;;20.50;94.40;;;;;;4208730;28;20264;-76
2022/05/29 07:13:56;;;;;;;1.75;0.90;;;20.60;94.40;;;;;;4208539;28;20226;-76
2022/05/29 07:15:59;;;;;;;2.28;0.60;;;20.60;94.30;;;;;;4208371;28;20682;-76
2022/05/29 07:18:01;;;;;;;2.50;0.90;;;20.60;94.40;;;;;;4208446;28;20222;-76
2022/05/29 07:20:05;;;;;;;1.38;0.82;;;20.60;94.40;;;;;;4208949;28;20218;-76
2022/05/29 07:22:07;;;;;;;2.75;0.90;;;20.60;94.30;;;;;;4208147;28;20279;-76
2022/05/29 07:24:10;;;;;;;2.38;0.98;;;20.60;94.30;;;;;;4208870;28;20268;-76
2022/05/29 07:26:14;;;;;;;1.88;0.95;;;20.70;94.40;;;;;;4209041;28;20370;-76
2022/05/29 07:28:16;;;;;;;3.75;1.10;;;20.60;94.30;;;;;;4207519;28;20236;-76
2022/05/29 07:30:19;;;;;;;4.35;1.20;;;20.60;94.30;;;;;;4208796;28;20207;-76
2022/05/29 07:32:23;;;;;;;2.65;0.85;;;20.60;94.20;;;;;;4208907;28;20256;-76
2022/05/29 07:34:27;;;;;;;3.17;1.17;;;20.60;94.20;;;;;;4207917;28;20218;-76
2022/05/29 07:36:29;;;;;;;4.97;1.05;;;20.60;94.20;;;;;;4208924;28;20666;-76
2022/05/29 07:38:31;;;;;;;2.80;1.00;;;20.60;94.30;;;;;;4207925;28;20247;-76
2022/05/29 07:40:34;;;;;;;2.42;1.10;;;20.60;94.30;;;;;;4209883;28;20647;-76
2022/05/29 07:44:59;;;;;;;3.45;1.20;;;20.60;94.30;;;;;;4208695;28;20187;-76
2022/05/29 07:47:01;;;;;;;3.03;1.15;;;20.70;94.30;;;;;;4208581;28;20218;-76
2022/05/29 07:49:04;;;;;;;1.98;1.00;;;20.60;94.20;;;;;;4207826;28;20627;-76
2022/05/29 07:51:06;;;;;;;2.92;1.30;;;20.70;94.20;;;;;;4209190;28;20229;-76
2022/05/29 07:53:09;;;;;;;3.67;1.10;;;20.70;94.20;;;;;;4208638;28;20290;-76
2022/05/29 07:55:13;;;;;;;2.38;1.00;;;20.70;94.20;;;;;;4209203;28;20214;-76
2022/05/29 07:57:15;;;;;;;1.92;1.00;;;20.70;94.20;;;;;;4208412;28;20210;-76
2022/05/29 07:59:19;;;;;;;2.47;0.77;;;20.70;94.20;;;;;;4209541;28;20227;-76
2022/05/29 08:01:22;;;;;;;1.55;0.80;;;20.70;94.20;;;;;;4208250;28;20233;-76
2022/05/29 08:03:24;;;;;;;2.88;0.93;;;20.70;94.20;;;;;;4208681;28;20268;-76
2022/05/29 08:05:29;;;;;;;2.67;1.00;;;20.70;94.20;;;;;;4208377;28;20210;-77
2022/05/29 08:07:31;;;;;;;1.70;0.90;;;20.70;94.40;;;;;;4208935;28;20218;-76
2022/05/29 08:09:34;;;;;;;2.80;1.08;;;20.70;94.20;;;;;;4207745;28;20214;-76
2022/05/29 08:11:36;;;;;;;3.50;1.20;;;20.70;94.30;;;;;;4208828;28;20218;-76
2022/05/29 08:13:39;;;;;;;2.88;1.25;;;20.70;94.30;;;;;;4206852;28;20708;-76
2022/05/29 08:15:43;;;;;;;1.42;0.77;;;20.70;94.30;;;;;;4207581;28;20248;-76
2022/05/29 08:17:46;;;;;;;2.08;1.05;;;20.70;94.30;;;;;;4208362;28;20260;-76
2022/05/29 08:19:48;;;;;;;2.17;0.90;;;20.70;94.30;;;;;;4207569;28;20554;-76
2022/05/29 08:21:51;;;;;;;2.10;0.90;;;20.70;94.40;;;;;;4207630;28;20238;-76
2022/05/29 08:30:55;;;;;;;2.17;1.10;;;20.80;94.30;;;;;;4207453;28;20828;-76
2022/05/29 08:32:57;;;;;;;2.45;1.10;;;20.80;94.40;;;;;;4208450;28;20307;-76
2022/05/29 08:35:00;;;;;;;1.98;0.90;;;20.80;94.20;;;;;;4208137;28;20218;-76
2022/05/29 08:37:02;;;;;;;2.92;0.82;;;20.80;94.30;;;;;;4208117;28;20210;-76
2022/05/29 08:39:04;;;;;;;1.98;0.80;;;20.80;94.50;;;;;;4207998;28;20260;-76
2022/05/29 08:41:10;;;;;;;3.15;1.38;;;20.80;94.30;;;;;;4207778;28;20222;-76
2022/05/29 08:43:19;;;;;;;2.88;0.82;;;20.80;94.40;;;;;;4207160;28;20295;-76
2022/05/29 08:45:21;;;;;;;2.00;0.93;;;20.80;94.30;;;;;;4205170;28;20272;-76
2022/05/29 08:47:28;;;;;;;2.60;1.00;;;20.90;94.30;;;;;;4206779;28;20214;-76
2022/05/29 08:49:33;;;;;;;3.42;0.95;;;20.90;94.40;;;;;;4207053;28;20248;-76
2022/05/29 08:52:09;;;;;;;2.03;0.80;;;20.90;94.30;;;;;;4208472;28;20210;-76
2022/05/29 08:54:13;;;;;;;1.65;0.80;;;20.90;94.30;;;;;;4208185;28;20206;-76
2022/05/29 08:56:21;;;;;;;1.67;0.93;;;20.90;94.30;;;;;;4207958;28;20264;-76
2022/05/29 08:58:30;;;;;;;2.22;0.95;;;20.90;94.20;;;;;;4207588;28;20264;-76
2022/05/29 09:00:47;;;;;;;2.00;0.93;;;20.90;94.00;;;;;;4207769;28;20214;-76
2022/05/29 09:03:07;;;;;;;2.17;0.90;;;21.00;94.10;;;;;;4207954;28;20635;-76
2022/05/29 09:05:18;;;;;;;4.32;1.00;;;21.00;94.10;;;;;;4206688;28;20218;-76
2022/05/29 09:07:22;;;;;;;2.08;0.80;;;21.00;94.00;;;;;;4208089;28;20662;-76
2022/05/29 09:09:29;;;;;;;1.95;0.90;;;21.00;94.20;;;;;;4207847;28;20210;-76
2022/05/29 09:11:36;;;;;;;2.80;0.90;;;21.00;94.20;;;;;;4207677;28;20226;-76
2022/05/29 09:13:46;;;;;;;2.35;1.00;;;21.00;94.00;;;;;;4207873;28;20226;-76
2022/05/29 09:15:51;;;;;;;2.50;0.80;;;21.00;94.00;;;;;;4208052;28;20214;-76
2022/05/29 09:18:01;;;;;;;2.97;0.93;;;20.90;94.10;;;;;;4209278;28;20627;-77
2022/05/29 09:20:09;;;;;;;1.70;0.80;;;20.90;94.20;;;;;;4210065;28;20223;-76
2022/05/29 09:22:18;;;;;;;2.35;0.90;;;20.90;94.30;;;;;;4210347;28;20230;-76
2022/05/29 09:24:47;;;;;;;1.92;1.00;;;20.90;94.20;;;;;;4210753;28;20268;-76
2022/05/29 09:26:49;;;;;;;2.25;0.73;;;21.00;94.20;;;;;;4210535;28;20218;-76
2022/05/29 09:28:52;;;;;;;1.45;0.93;;;20.90;94.20;;;;;;4210417;28;20256;-76
2022/05/29 09:31:02;;;;;;;1.77;0.88;;;21.00;94.20;;;;;;4210836;28;20256;-76
2022/05/29 09:33:16;;;;;;;1.98;0.75;;;20.90;94.10;;;;;;4211015;28;20273;-76
2022/05/29 09:35:25;;;;;;;3.13;0.70;;;21.00;94.00;;;;;;4209754;28;20283;-76
2022/05/29 09:37:37;;;;;;;2.85;1.10;;;21.00;93.80;;;;;;4210392;28;20218;-76
2022/05/29 09:39:44;;;;;;;2.10;0.90;;;21.10;93.80;;;;;;4211012;28;20271;-76
2022/05/29 09:41:51;;;;;;;3.10;0.95;;;21.10;93.90;;;;;;4209620;28;20268;-76
2022/05/29 09:44:09;;;;;;;2.47;0.70;;;21.10;93.80;;;;;;4208171;28;20271;-76
2022/05/29 09:46:19;;;;;;;1.70;0.90;;;21.10;93.80;;;;;;4209310;28;20283;-76
2022/05/29 09:50:50;;;;;;;1.75;0.90;;;21.10;93.90;;;;;;4209443;28;20203;-76
2022/05/29 09:52:54;;;;;;;1.60;0.65;;;21.10;93.80;;;;;;4210676;28;20260;-76
2022/05/29 09:55:02;;;;;;;1.77;0.88;;;21.00;93.80;;;;;;4210316;28;20271;-76
2022/05/29 09:57:10;;;;;;;1.17;0.80;;;21.10;93.90;;;;;;4209139;28;20719;-76
2022/05/29 09:59:17;;;;;;;1.85;0.70;;;21.00;93.80;;;;;;4210465;28;20270;-76
2022/05/29 10:01:29;;;;;;;2.38;0.77;;;21.00;93.80;;;;;;4210401;28;20221;-76
2022/05/29 10:03:53;;;;;;;2.92;0.77;;;21.00;93.80;;;;;;4209749;28;20238;-76
2022/05/29 10:06:10;;;;;;;1.35;0.68;;;21.00;93.80;;;;;;4209972;28;20234;-76
2022/05/29 10:08:20;;;;;;;2.97;1.00;;;21.10;93.80;;;;;;4209006;28;20551;-77
2022/05/29 10:10:33;;;;;;;1.75;0.80;;;21.00;94.20;;;;;;4209141;28;20272;-76
2022/05/29 10:12:41;;;;;;;2.03;0.82;;;21.10;93.80;;;;;;4208580;28;20615;-76
2022/05/29 10:14:45;;;;;;;2.90;1.00;;;21.00;93.80;;;;;;4210613;28;20267;-76
2022/05/29 10:16:49;;;;;;;2.50;0.90;;;21.10;93.80;;;;;;4209643;28;20271;-77
2022/05/29 10:18:52;;;;;;;2.00;0.80;;;21.10;93.80;;;;;;4209904;28;20267;-76
2022/05/29 10:21:08;;;;;;;2.10;0.80;;;21.10;93.80;;;;;;4210462;28;20263;-76
2022/05/29 10:23:12;;;;;;;1.55;0.73;;;21.10;93.80;;;;;;4210063;28;20253;-76
2022/05/29 10:25:16;;;;;;;1.45;0.77;;;21.10;93.80;;;;;;4209305;28;20607;-76
2022/05/29 10:27:29;;;;;;;1.83;0.75;;;21.10;93.80;;;;;;4210013;28;20248;-76
2022/05/29 10:29:34;;;;;;;0.93;0.65;;;21.00;94.40;;;;;;4208199;28;20259;-76
2022/05/29 10:31:40;;;;;;;2.00;0.70;;;21.00;94.40;;;;;;4210112;28;20291;-76
2022/05/29 10:34:05;;;;;;;1.30;0.75;;;21.00;94.30;;;;;;4210150;28;20299;-76
2022/05/29 10:36:13;;;;;;;1.33;0.80;;;20.90;94.40;;;;;;4209284;28;20214;-76
2022/05/29 10:38:26;;;;;;;2.50;1.00;;;20.90;94.20;;;;;;4209932;28;20218;-76
2022/05/29 10:40:31;;;;;;;1.98;0.80;;;21.00;94.40;;;;;;4209372;28;20210;-76
2022/05/29 10:42:42;;;;;;;1.63;0.70;;;20.90;94.40;;;;;;4208042;28;20210;-76
2022/05/29 10:44:47;;;;;;;1.67;0.70;;;20.90;94.50;;;;;;4208981;28;20209;-76
2022/05/29 10:46:56;;;;;;;0.90;0.60;;;20.90;94.40;;;;;;4209493;28;20218;-76
2022/05/29 10:49:21;;;;;;;1.63;0.70;;;20.90;94.50;;;;;;4209270;28;20210;-76
2022/05/29 10:51:28;;;;;;;1.92;0.70;;;20.90;94.50;;;;;;4208823;28;20222;-76
2022/05/29 10:53:43;;;;;;;1.33;0.60;;;20.90;94.40;;;;;;4209607;28;20239;-76
2022/05/29 10:55:55;;;;;;;1.13;0.80;;;20.90;94.50;;;;;;4209078;28;20972;-76
2022/05/29 10:58:09;;;;;;;2.22;0.95;;;20.90;94.50;;;;;;4208201;28;20227;-76
2022/05/29 11:00:25;;;;;;;2.20;0.90;;;20.90;94.50;;;;;;4208818;28;20611;-76
2022/05/29 11:05:32;;;;;;;2.20;0.98;;;20.90;94.70;;;;;;4208670;28;20206;-76
2022/05/29 11:07:46;;;;;;;1.17;0.57;;;20.90;94.70;;;;;;4209739;28;20256;-76
2022/05/29 11:10:00;;;;;;;1.80;0.70;;;20.90;94.60;;;;;;4209608;28;20230;-76
2022/05/29 11:12:08;;;;;;;1.73;0.90;;;21.00;94.60;;;;;;4208825;28;20267;-76
2022/05/29 11:14:32;;;;;;;1.45;0.75;;;20.90;94.60;;;;;;4208662;28;20268;-76
2022/05/29 11:16:52;;;;;;;0.95;0.70;;;21.00;94.70;;;;;;4208019;28;20283;-76
2022/05/29 11:19:26;;;;;;;2.30;0.93;;;21.00;94.60;;;;;;4209126;28;20233;-76
2022/05/29 11:21:41;;;;;;;1.67;0.70;;;21.00;95.00;;;;;;4208823;28;20267;-76
2022/05/29 11:24:13;;;;;;;2.03;0.82;;;21.00;94.60;;;;;;4209460;28;20714;-76
2022/05/29 11:26:27;;;;;;;1.52;0.80;;;21.00;94.70;;;;;;4208539;28;20218;-76